Frankfort, MI (49635)

9:01 AM EDT on July 07, 2015 (GMT -0400)
Crystal Lake Pinecrest | | Change Station
CLOSE
Current Station
Personal Weather Station
Location: Beulah, MI
Elevation: 607 ft
Nearby Weather Stations

Elev 607 ft 44.66 °N, 86.14 °W | Updated 5 minutes ago

Overcast
Overcast
55.0 °F
Feels Like 55.0 °F
N
2.0
Wind Variable Wind from NE
Gusts 3.0 mph

Today
High -- | Low -- °F
--% Chance of Precip.
Yesterday
High -- | Low -- °F
Precip. -- in
6:07 AM 9:32 PM
Waning Gibbous, 65% visible
Pressure 29.96 in
Visibility 10.0 miles
Clouds Overcast 5000 ft
Dew Point 52 °F
Humidity 89%
Rainfall 0.45 in
Snow Depth Not available.
UV 1 out of 12
Pollen .60 out of 12
Air Quality Not available.
Flu Activity Not available.
METAR KFKS 071255Z AUTO 34008KT 310V010 10SM OVC050 14/09 A2996 RMK AO2 T01400085

More Conditions Fewer Conditions

Pressure 29.96 in
Visibility 10.0 miles
Clouds Overcast 5000 ft
Dew Point 52 °F
Humidity 89%
Rainfall 0.45 in
Snow Depth Not available.
UV 1 out of 12
Pollen .60 out of 12
Air Quality Not available.
Flu Activity Not available.
METAR KFKS 071255Z AUTO 34008KT 310V010 10SM OVC050 14/09 A2996 RMK AO2 T01400085

More Conditions Fewer Conditions

Nowcast | as of 9:00 am EDT on July 7, 2015

At 10 am...partly cloudy. Temperature 56. North winds 16 mph. At 12 PM...partly cloudy. Temperature 57. North winds 18 mph. At 2 PM...partly cloudy. Temperature 61. North winds 18 mph. At 4 PM...mostly clear. Temperature 65. North winds 17 mph.

×

10-Day Weather Forecast

×

Almanac

Astronomy

Jul. 07, 2015 Rise Set
Actual Time
Civil Twilight
Nautical Twilight
Astronomical Twilight
Moon
Length of Visible Light
Length of Day
Tomorrow will be .
, % of the Moon is Illuminated

Today's Extremes

State Highs State Lows

Community

WunderPhotos

Upload Photos

1,835,787 photos uploaded!

WunderBlogs® & News

Nearby

Air Quality

  Air Quality AQ Index Pollutant
Not available.

Snow Depth

Station Depth Elevation

Earthquake Activity

City Distance Mag. Time & Date
Minimum magnitude displayed is 2.5.

Coastal Water Temperatures

Place Temperature

Stations

Nearby Weather Stations

Station Location Temp. Windchill Dew Point Humidity Wind Precip. Elev Updated Type